Terminal Aerodrome Forecast
Issued by NWS

Home | Current Version | Previous Version | Text Only | Print | Product List | Glossary On
Versions: 1 2 3 4 5 6 7 8 9 10 11 12 13 14 15 16 17 18 19
000
FTXN70 PGUM 301409 RRB
TAFTPN
TAF
PTPN 301409Z 3014/0112 08011KT P6SM VCTS SCT016CB BKN050 BKN120
      TEMPO 3014/3017 3SM SHRA BKN016 OVC050=

USA.gov is the U.S. government's official web portal to all federal, state and local government web resources and services.